Time;durP1;ratioP1;P1;durP2;ratioP2;P2;SDS_P1;SDS_P2;PMS_P1;PMS_P2;Temp;Humidity;BMP_temperature;BMP_pressure;BME280_temperature;BME280_humidity;BME280_pressure;Samples;Min_cycle;Max_cycle;Signal;HPM_P1;HPM_P2
2022/05/07 00:01:02;;;;;;;10.32;4.22;;;;;;;21.16;43.16;102540.72;5075279;28;20021;-74
2022/05/07 00:03:28;;;;;;;9.27;3.80;;;;;;;21.05;43.36;102541.16;5061676;28;20036;-74
2022/05/07 00:05:53;;;;;;;7.00;3.80;;;;;;;21.01;43.30;102553.31;5055233;28;20029;-75
2022/05/07 00:08:19;;;;;;;6.43;3.53;;;;;;;20.99;43.23;102541.72;5055258;28;20021;-74
2022/05/07 00:10:45;;;;;;;5.43;3.17;;;;;;;20.99;43.17;102536.97;5055193;28;20029;-74
2022/05/07 00:13:11;;;;;;;8.88;3.97;;;;;;;20.92;43.26;102547.81;5055127;28;20025;-74
2022/05/07 00:15:37;;;;;;;4.80;3.80;;;;;;;20.89;43.25;102547.69;5054992;28;20391;-74
2022/05/07 00:18:04;;;;;;;11.38;3.78;;;;;;;20.75;43.44;102554.31;5055369;28;20032;-75
2022/05/07 00:20:31;;;;;;;10.07;3.97;;;;;;;20.77;43.33;102557.56;5054932;28;20031;-80
2022/05/07 00:22:57;;;;;;;11.45;4.22;;;;;;;20.74;43.24;102563.00;5054949;28;20029;-74
2022/05/07 00:25:23;;;;;;;7.85;3.85;;;;;;;20.62;43.35;102566.50;5054823;28;20040;-74
2022/05/07 00:27:49;;;;;;;9.18;3.95;;;;;;;20.68;43.20;102573.50;5065793;28;20499;-74
2022/05/07 00:30:15;;;;;;;8.25;3.33;;;;;;;20.62;43.19;102568.47;5074730;28;20051;-75
2022/05/07 00:32:40;;;;;;;5.18;3.53;;;;;;;20.56;43.32;102567.06;5074743;28;20028;-75
2022/05/07 00:35:09;;;;;;;5.82;3.60;;;;;;;20.49;43.23;102567.59;5074308;28;20024;-74
2022/05/07 00:37:34;;;;;;;4.80;2.80;;;;;;;20.44;43.15;102571.38;5074641;28;20024;-74
2022/05/07 00:40:00;;;;;;;8.40;3.78;;;;;;;20.26;43.20;102578.16;5074509;28;20475;-74
2022/05/07 00:42:26;;;;;;;10.90;4.32;;;;;;;20.18;43.28;102588.16;5074638;28;20107;-75
2022/05/07 00:44:51;;;;;;;9.20;3.92;;;;;;;20.16;43.15;102582.09;5074540;28;20020;-74
2022/05/07 00:47:28;;;;;;;10.35;3.85;;;;;;;20.22;42.85;102580.78;5074545;28;20029;-81
2022/05/07 00:51:33;;;;;;;6.65;4.28;;;;;;;19.95;43.34;102573.72;5074344;28;20025;-74
2022/05/07 00:52:45;;;;;;;7.40;4.50;;;;;;;19.85;43.58;102568.53;5074406;28;20021;-74
2022/05/07 00:55:12;;;;;;;7.80;4.70;;;;;;;20.01;43.34;102577.09;5072991;28;20016;-75
2022/05/07 00:57:37;;;;;;;11.25;4.47;;;;;;;20.04;43.42;102581.19;5073424;28;20077;-74
2022/05/07 01:00:05;;;;;;;8.82;4.90;;;;;;;20.08;43.45;102574.63;5073890;28;20111;-75
2022/05/07 01:02:30;;;;;;;6.35;4.65;;;;;;;20.13;43.31;102573.63;5074083;28;20391;-74
2022/05/07 01:04:56;;;;;;;8.00;4.70;;;;;;;20.11;43.38;102575.94;5074103;28;20035;-84
2022/05/07 01:07:22;;;;;;;7.90;4.75;;;;;;;20.05;43.54;102571.72;5074165;28;20097;-74
2022/05/07 01:09:48;;;;;;;11.95;5.32;;;;;;;20.04;43.54;102575.66;5073999;28;20499;-74
2022/05/07 01:12:16;;;;;;;8.15;4.70;;;;;;;20.06;43.56;102576.94;5073986;28;20111;-84
2022/05/07 01:14:41;;;;;;;7.00;4.75;;;;;;;20.11;43.39;102584.28;5073997;28;20036;-74
2022/05/07 01:17:08;;;;;;;7.18;4.45;;;;;;;20.10;43.12;102589.00;5072592;28;20028;-74
2022/05/07 01:19:34;;;;;;;7.72;3.67;;;;;;;20.09;43.30;102586.53;5073858;28;20029;-84
2022/05/07 01:22:01;;;;;;;6.20;3.60;;;;;;;19.96;43.25;102588.41;5073236;28;20097;-85
2022/05/07 01:24:27;;;;;;;4.38;3.40;;;;;;;19.90;43.25;102582.22;5073715;28;20025;-74
2022/05/07 01:26:52;;;;;;;9.77;4.00;;;;;;;19.84;43.26;102585.50;5069630;28;20407;-75
2022/05/07 01:29:18;;;;;;;8.40;4.35;;;;;;;19.76;43.15;102584.38;5053746;28;20033;-74
2022/05/07 01:31:43;;;;;;;9.32;5.05;;;;;;;19.60;43.58;102575.78;5086155;28;20394;-75
2022/05/07 01:34:09;;;;;;;7.65;5.00;;;;;;;19.56;43.55;102585.06;5053285;28;20047;-83
2022/05/07 01:36:34;;;;;;;8.85;5.38;;;;;;;19.55;43.84;102587.00;5071118;28;20041;-74
2022/05/07 01:39:00;;;;;;;7.60;4.70;;;;;;;19.59;43.69;102585.25;5052734;28;20029;-75
2022/05/07 01:41:26;;;;;;;7.55;4.80;;;;;;;19.61;43.71;102582.16;5053542;28;20554;-75
2022/05/07 01:43:53;;;;;;;8.30;5.32;;;;;;;19.64;43.69;102570.38;5053484;28;20060;-75
2022/05/07 01:49:03;;;;;;;7.50;4.90;;;;;;;19.57;43.80;102573.69;5053428;28;20423;-75
2022/05/07 01:51:28;;;;;;;6.80;4.65;;;;;;;19.57;43.75;102578.38;5053336;28;20025;-75
2022/05/07 01:53:55;;;;;;;7.10;4.93;;;;;;;19.53;43.88;102572.66;5053410;28;20482;-74
2022/05/07 01:56:21;;;;;;;7.50;4.72;;;;;;;19.60;43.63;102581.34;5053068;28;20032;-74
2022/05/07 01:58:48;;;;;;;7.13;4.95;;;;;;;19.59;43.61;102576.94;5071790;28;20024;-74
2022/05/07 02:01:14;;;;;;;8.50;4.65;;;;;;;19.68;43.56;102576.91;5073063;28;20029;-74
2022/05/07 02:03:40;;;;;;;5.72;4.65;;;;;;;19.75;43.36;102573.63;5073027;28;20024;-74
2022/05/07 02:06:05;;;;;;;11.85;5.32;;;;;;;19.67;43.61;102575.28;5072896;28;20485;-75
2022/05/07 02:08:31;;;;;;;7.57;4.95;;;;;;;19.69;43.20;102578.53;5072933;28;20467;-79
2022/05/07 02:11:00;;;;;;;6.95;4.70;;;;;;;19.66;43.51;102577.25;5072840;28;20024;-75
2022/05/07 02:13:26;;;;;;;9.32;5.13;;;;;;;19.64;43.57;102582.28;5072904;28;20649;-74
2022/05/07 02:15:52;;;;;;;7.93;5.30;;;;;;;19.61;43.57;102579.38;5060107;28;20033;-75
2022/05/07 02:18:17;;;;;;;7.18;5.53;;;;;;;19.57;43.83;102578.38;5052761;28;20467;-75
2022/05/07 02:20:43;;;;;;;8.13;5.55;;;;;;;19.51;43.99;102577.75;5051637;28;20048;-75
2022/05/07 02:23:09;;;;;;;7.10;4.70;;;;;;;19.53;43.91;102586.53;5052852;28;20036;-74
2022/05/07 02:25:34;;;;;;;6.43;4.55;;;;;;;19.54;44.00;102581.81;5052472;28;20107;-74
2022/05/07 02:28:00;;;;;;;7.97;5.03;;;;;;;19.66;43.62;102584.75;5052770;28;20041;-75
2022/05/07 02:30:25;;;;;;;8.10;4.93;;;;;;;19.65;43.57;102591.44;5051498;28;20498;-75
2022/05/07 02:32:51;;;;;;;8.32;4.72;;;;;;;19.48;43.94;102591.44;5052512;28;20036;-85
2022/05/07 02:35:16;;;;;;;8.77;4.55;;;;;;;19.46;43.92;102597.31;5060918;28;20032;-74
2022/05/07 02:37:42;;;;;;;7.10;4.22;;;;;;;19.53;43.59;102596.81;5072568;28;20040;-75
2022/05/07 02:40:08;;;;;;;7.47;4.97;;;;;;;19.49;43.66;102601.38;5072578;28;20527;-75
2022/05/07 02:42:34;;;;;;;6.47;3.92;;;;;;;19.38;43.96;102598.94;5072696;28;20021;-74
2022/05/07 02:45:01;;;;;;;8.30;4.40;;;;;;;19.38;43.56;102596.19;5072464;28;20031;-75
2022/05/07 02:47:28;;;;;;;13.63;5.63;;;;;;;19.32;43.72;102594.72;5072604;28;20111;-84
2022/05/07 02:49:55;;;;;;;7.22;5.75;;;;;;;19.36;43.79;102598.47;5069973;28;20033;-84
2022/05/07 02:52:21;;;;;;;9.55;5.03;;;;;;;19.39;43.76;102592.25;5056750;28;20118;-85
2022/05/07 02:54:46;;;;;;;7.65;4.78;;;;;;;19.28;43.95;102590.97;5056739;28;20052;-74
2022/05/07 02:57:12;;;;;;;9.88;5.22;;;;;;;19.24;43.95;102594.72;5056825;28;20060;-83
2022/05/07 02:59:41;;;;;;;10.38;5.25;;;;;;;19.19;43.96;102587.38;5056635;28;20434;-84
2022/05/07 03:02:07;;;;;;;10.82;5.93;;;;;;;19.13;44.14;102597.84;5056516;28;20029;-74
2022/05/07 03:04:34;;;;;;;9.07;5.35;;;;;;;19.11;43.99;102590.97;5056497;28;20083;-75
2022/05/07 03:07:00;;;;;;;20.63;6.93;;;;;;;19.13;43.94;102594.25;5057258;28;20029;-84
2022/05/07 03:09:25;;;;;;;10.43;5.53;;;;;;;19.04;44.18;102591.50;5056172;28;20029;-74
2022/05/07 03:11:51;;;;;;;25.52;6.68;;;;;;;19.09;44.23;102590.50;5056235;28;20040;-74
2022/05/07 03:14:16;;;;;;;52.33;8.07;;;;;;;19.09;44.28;102593.25;5056266;28;20553;-74
2022/05/07 03:16:42;;;;;;;20.55;8.35;;;;;;;19.10;44.33;102598.47;5056127;28;20048;-74
2022/05/07 03:19:08;;;;;;;27.67;7.05;;;;;;;19.18;44.15;102591.28;5056137;28;20029;-74
2022/05/07 03:21:34;;;;;;;19.50;6.47;;;;;;;19.20;44.27;102599.31;5056173;28;20020;-75
2022/05/07 03:24:00;;;;;;;16.10;6.63;;;;;;;19.21;44.20;102610.06;5056160;28;20056;-74
2022/05/07 03:26:26;;;;;;;27.23;6.68;;;;;;;19.19;44.42;102592.13;5055913;28;20057;-75
2022/05/07 03:28:51;;;;;;;33.95;6.75;;;;;;;19.22;44.32;102597.81;5074358;28;20036;-75
2022/05/07 03:31:19;;;;;;;38.38;7.53;;;;;;;19.22;44.25;102597.81;5075981;28;20029;-75
2022/05/07 03:33:48;;;;;;;20.38;6.80;;;;;;;19.22;44.36;102597.81;5075952;28;20028;-75
2022/05/07 03:36:19;;;;;;;20.52;6.43;;;;;;;19.19;44.35;102601.22;5075517;28;20060;-74
2022/05/07 03:38:45;;;;;;;32.92;7.30;;;;;;;19.19;44.34;102598.47;5075735;28;20036;-75
2022/05/07 03:41:10;;;;;;;24.05;6.68;;;;;;;19.06;44.82;102600.28;5075878;28;20028;-75
2022/05/07 03:43:37;;;;;;;21.10;6.72;;;;;;;19.00;45.04;102598.81;5075938;28;20522;-84
2022/05/07 03:46:04;;;;;;;47.35;7.47;;;;;;;19.09;44.63;102598.81;5075827;28;20066;-82
2022/05/07 03:48:30;;;;;;;22.08;6.43;;;;;;;19.16;44.84;102601.09;5069259;28;20021;-84
2022/05/07 03:50:56;;;;;;;27.15;6.82;;;;;;;19.15;44.50;102599.47;5055538;28;20104;-74
2022/05/07 03:53:31;;;;;;;29.17;6.25;;;;;;;19.09;44.65;102601.56;5055721;28;20387;-85
2022/05/07 03:56:02;;;;;;;31.77;7.10;;;;;;;19.11;44.52;102596.50;5055324;28;20021;-75
2022/05/07 03:58:29;;;;;;;24.75;6.82;;;;;;;19.08;44.63;102598.00;5073302;28;20047;-74
2022/05/07 04:00:57;;;;;;;31.77;7.18;;;;;;;19.14;44.42;102606.97;5075453;28;20024;-84
2022/05/07 04:03:23;;;;;;;19.33;5.50;;;;;;;19.06;44.64;102605.81;5067955;28;20119;-74
2022/05/07 04:05:50;;;;;;;13.82;4.88;;;;;;;19.00;44.62;102603.53;5055507;28;20059;-75
2022/05/07 04:08:16;;;;;;;25.45;5.78;;;;;;;18.99;44.48;102610.22;5055453;28;20025;-75
2022/05/07 04:10:42;;;;;;;22.25;5.47;;;;;;;18.96;44.52;102600.59;5055286;28;20079;-83
2022/05/07 04:13:10;;;;;;;17.30;5.22;;;;;;;18.84;44.84;102598.47;5055205;28;20474;-74
2022/05/07 04:15:36;;;;;;;19.67;5.28;;;;;;;18.79;44.87;102603.34;5060693;28;20095;-74
2022/05/07 04:18:04;;;;;;;16.02;5.40;;;;;;;18.69;44.99;102601.72;5054552;28;20055;-81
2022/05/07 04:20:30;;;;;;;20.30;4.75;;;;;;;18.68;44.98;102604.81;5055107;28;20025;-84
2022/05/07 04:22:55;;;;;;;12.70;5.60;;;;;;;18.57;45.07;102593.19;5055861;28;20029;-83
2022/05/07 04:25:21;;;;;;;8.10;5.30;;;;;;;18.55;45.09;102617.59;5074890;28;20028;-75
2022/05/07 04:27:46;;;;;;;11.38;4.97;;;;;;;18.54;45.01;102611.25;5075076;28;20052;-84
2022/05/07 04:30:12;;;;;;;10.80;5.40;;;;;;;18.52;44.97;102618.25;5073892;28;20479;-84
2022/05/07 04:32:38;;;;;;;7.32;5.05;;;;;;;18.52;44.91;102623.78;5074548;28;20120;-74
2022/05/07 04:35:05;;;;;;;7.65;5.30;;;;;;;18.50;45.15;102618.56;5074840;28;20456;-75
2022/05/07 04:37:31;;;;;;;7.80;5.28;;;;;;;18.51;45.01;102630.44;5074774;28;20502;-85
2022/05/07 04:39:56;;;;;;;11.40;4.95;;;;;;;18.48;44.96;102622.78;5074115;28;20032;-74
2022/05/07 04:42:22;;;;;;;12.57;4.90;;;;;;;18.49;45.06;102624.41;5074774;28;20074;-74
2022/05/07 04:44:47;;;;;;;11.20;5.93;;;;;;;18.46;44.81;102627.84;5074946;28;20077;-85
2022/05/07 04:47:13;;;;;;;11.23;5.55;;;;;;;18.49;44.90;102629.97;5068877;28;20017;-75
2022/05/07 04:49:39;;;;;;;12.30;5.57;;;;;;;18.43;44.83;102634.81;5055031;28;20032;-84
2022/05/07 04:52:05;;;;;;;11.25;5.05;;;;;;;18.46;44.93;102631.44;5054488;28;20097;-85
2022/05/07 04:54:32;;;;;;;17.30;5.80;;;;;;;18.43;44.93;102636.78;5054661;28;20021;-74
2022/05/07 04:56:58;;;;;;;10.52;5.35;;;;;;;18.38;44.92;102639.69;5054317;28;20025;-74
2022/05/07 04:59:24;;;;;;;10.30;4.88;;;;;;;18.45;44.70;102643.63;5063977;28;20402;-75
2022/05/07 05:01:50;;;;;;;13.18;5.18;;;;;;;18.47;44.73;102643.31;5074379;28;20028;-81
2022/05/07 05:04:16;;;;;;;13.02;6.00;;;;;;;18.43;44.81;102636.78;5074377;28;20029;-80
2022/05/07 05:06:42;;;;;;;17.55;5.82;;;;;;;18.50;44.65;102637.94;5074157;28;20025;-83
2022/05/07 05:09:09;;;;;;;12.63;5.65;;;;;;;18.43;44.85;102643.13;5066776;28;20013;-79
2022/05/07 05:11:35;;;;;;;11.23;5.45;;;;;;;18.47;44.65;102644.13;5054204;28;20033;-78
2022/05/07 05:14:01;;;;;;;9.73;5.60;;;;;;;18.44;44.80;102643.94;5053914;28;20048;-85
2022/05/07 05:16:27;;;;;;;10.32;5.00;;;;;;;18.50;44.62;102645.44;5054023;28;20076;-84
2022/05/07 05:18:52;;;;;;;25.13;5.90;;;;;;;18.31;45.26;102651.22;5058364;28;20490;-74
2022/05/07 05:21:18;;;;;;;13.38;5.18;;;;;;;18.41;45.04;102650.13;5072527;28;20055;-73
2022/05/07 05:23:47;;;;;;;19.48;5.00;;;;;;;18.38;45.32;102659.06;5073769;28;20383;-74
2022/05/07 05:26:14;;;;;;;17.90;5.35;;;;;;;18.44;45.32;102663.31;5073504;28;20123;-74
2022/05/07 05:28:40;;;;;;;15.85;5.35;;;;;;;18.40;45.48;102660.38;5070870;28;20802;-73
2022/05/07 05:31:06;;;;;;;23.83;6.88;;;;;;;18.41;45.65;102662.00;5053686;28;20099;-77
2022/05/07 05:33:32;;;;;;;21.00;6.10;;;;;;;18.44;45.74;102660.53;5064093;28;20082;-84
2022/05/07 05:35:58;;;;;;;17.17;5.72;;;;;;;18.47;45.85;102668.22;5073420;28;20028;-74
2022/05/07 05:38:24;;;;;;;22.58;6.05;;;;;;;18.44;46.07;102660.53;5073133;28;20028;-81
2022/05/07 05:40:50;;;;;;;28.00;6.38;;;;;;;18.53;46.02;102670.53;5052239;28;20111;-84
2022/05/07 05:43:17;;;;;;;33.65;6.10;;;;;;;18.44;46.25;102677.16;5053514;28;20060;-74
2022/05/07 05:45:43;;;;;;;18.77;6.88;;;;;;;18.55;45.92;102672.97;5052322;28;20033;-74
2022/05/07 05:48:09;;;;;;;26.45;5.97;;;;;;;18.56;46.43;102682.91;5053463;28;20368;-75
2022/05/07 05:50:35;;;;;;;20.80;6.22;;;;;;;18.70;46.20;102675.31;5070861;28;20068;-74
2022/05/07 05:53:01;;;;;;;21.65;5.82;;;;;;;18.73;46.56;102676.63;5073342;28;20507;-86
2022/05/07 05:55:26;;;;;;;23.95;6.57;;;;;;;18.81;46.20;102690.50;5073562;28;20064;-84
2022/05/07 05:57:52;;;;;;;22.35;6.47;;;;;;;18.92;46.07;102692.97;5073137;28;20028;-76
2022/05/07 06:00:18;;;;;;;16.02;5.68;;;;;;;18.89;46.31;102694.41;5057686;28;20033;-74
2022/05/07 06:02:44;;;;;;;15.65;6.53;;;;;;;19.18;45.60;102693.00;5053219;28;20529;-82
2022/05/07 06:05:12;;;;;;;20.33;6.50;;;;;;;19.12;45.91;102704.28;5053389;28;20035;-75
2022/05/07 06:07:38;;;;;;;15.45;5.72;;;;;;;19.07;46.18;102696.09;5085453;28;20039;-74
2022/05/07 06:10:04;;;;;;;17.60;5.30;;;;;;;19.23;45.76;102693.69;5065916;28;20025;-75
2022/05/07 06:12:30;;;;;;;22.42;5.88;;;;;;;19.25;45.82;102701.66;5073082;28;20104;-84
2022/05/07 06:14:56;;;;;;;24.25;5.57;;;;;;;19.28;45.90;102707.38;5072953;28;20107;-74
2022/05/07 06:17:22;;;;;;;18.30;5.00;;;;;;;19.37;45.83;102710.97;5072846;28;20104;-85
2022/05/07 06:19:48;;;;;;;10.95;4.85;;;;;;;19.33;45.96;102714.72;5058226;28;20383;-74
2022/05/07 06:22:13;;;;;;;29.65;6.35;;;;;;;19.09;46.43;102715.16;5085225;28;20032;-75
2022/05/07 06:27:31;;;;;;;17.77;6.38;;;;;;;19.15;46.87;102713.88;5052630;28;20501;-74
2022/05/07 06:29:58;;;;;;;12.93;5.53;;;;;;;19.48;46.14;102716.19;5055013;28;20061;-74
2022/05/07 06:32:29;;;;;;;8.77;4.57;;;;;;;19.65;45.95;102717.06;5072768;28;20132;-74
2022/05/07 06:34:55;;;;;;;13.80;5.75;;;;;;;19.71;45.75;102714.91;5072823;28;20032;-74
2022/05/07 06:37:20;;;;;;;12.43;5.57;;;;;;;19.90;45.55;102725.66;5072791;28;20035;-75
2022/05/07 06:39:46;;;;;;;12.55;5.90;;;;;;;19.98;45.65;102726.78;5072579;28;20087;-85
2022/05/07 06:42:11;;;;;;;12.02;5.95;;;;;;;20.01;45.77;102718.63;5071554;28;20040;-75
2022/05/07 06:44:37;;;;;;;10.50;5.78;;;;;;;20.13;45.57;102718.75;5072787;28;20091;-85
2022/05/07 06:47:03;;;;;;;15.27;6.85;;;;;;;20.31;45.32;102722.28;5072668;28;20032;-76
2022/05/07 06:49:28;;;;;;;10.23;6.57;;;;;;;20.33;45.11;102725.56;5072137;28;20033;-85
2022/05/07 06:51:54;;;;;;;16.00;7.13;;;;;;;20.30;45.55;102734.53;5071724;28;20493;-75
2022/05/07 06:54:21;;;;;;;14.65;6.82;;;;;;;20.29;45.87;102730.16;5072642;28;20103;-86
2022/05/07 06:56:47;;;;;;;18.33;6.32;;;;;;;20.26;45.92;102727.22;5072648;28;20036;-75
2022/05/07 06:59:12;;;;;;;20.92;6.80;;;;;;;20.33;45.96;102724.72;5072618;28;20402;-86
2022/05/07 07:01:38;;;;;;;16.65;7.35;;;;;;;20.36;46.00;102730.44;5072646;28;20039;-76
2022/05/07 07:04:04;;;;;;;12.75;7.55;;;;;;;20.45;45.95;102738.78;5072580;28;20065;-75
2022/05/07 07:06:30;;;;;;;18.73;6.93;;;;;;;20.59;45.62;102730.22;5061896;28;20029;-75
2022/05/07 07:08:56;;;;;;;18.58;6.78;;;;;;;20.56;45.85;102736.47;5052318;28;20128;-75
2022/05/07 07:11:22;;;;;;;11.38;6.30;;;;;;;20.36;46.41;102746.28;5052446;28;20040;-76
2022/05/07 07:13:48;;;;;;;21.63;7.00;;;;;;;20.52;46.00;102744.63;5052481;28;20021;-74
2022/05/07 07:16:13;;;;;;;13.98;7.57;;;;;;;20.72;45.88;102754.19;5059595;28;20056;-74
2022/05/07 07:18:39;;;;;;;28.52;9.73;;;;;;;20.88;45.90;102752.47;5072544;28;20047;-75
2022/05/07 07:21:05;;;;;;;18.25;8.63;;;;;;;21.14;45.57;102755.09;5072061;28;20389;-75
2022/05/07 07:23:30;;;;;;;15.57;7.70;;;;;;;21.27;45.08;102750.44;5072320;28;20025;-86
2022/05/07 07:25:57;;;;;;;13.65;7.13;;;;;;;21.35;44.79;102748.78;5066687;28;20383;-85
2022/05/07 07:28:23;;;;;;;21.35;7.85;;;;;;;21.38;45.01;102753.66;5070073;28;20115;-75
2022/05/07 07:30:49;;;;;;;13.23;7.47;;;;;;;21.46;44.91;102756.41;5071491;28;20453;-76
2022/05/07 07:33:15;;;;;;;13.45;7.75;;;;;;;21.49;44.80;102754.91;5067455;28;20028;-75
2022/05/07 07:35:44;;;;;;;22.10;9.85;;;;;;;21.51;44.90;102753.41;5068767;28;20062;-79
2022/05/07 07:38:12;;;;;;;16.00;6.38;;;;;;;21.51;44.82;102750.63;5073759;28;20029;-77
2022/05/07 07:40:39;;;;;;;10.32;6.88;;;;;;;21.74;44.58;102747.50;5075363;28;20501;-82
2022/05/07 07:43:04;;;;;;;17.95;9.15;;;;;;;21.92;44.17;102757.31;5075838;28;20024;-84
2022/05/07 07:48:15;;;;;;;17.40;5.95;;;;;;;21.97;44.26;102781.34;5074903;28;20043;-80
2022/05/07 07:50:40;;;;;;;16.35;6.13;;;;;;;21.95;44.01;102780.88;5064612;28;20474;-75
2022/05/07 07:53:10;;;;;;;10.38;6.28;;;;;;;21.93;43.94;102786.78;5073877;28;20639;-75
2022/05/07 07:55:37;;;;;;;10.63;6.10;;;;;;;21.94;43.97;102784.81;5063126;28;20028;-75
2022/05/07 07:58:05;;;;;;;11.13;6.22;;;;;;;21.89;44.09;102791.38;5067025;28;20043;-77
2022/05/07 08:00:31;;;;;;;10.13;6.47;;;;;;;21.97;43.99;102792.47;5064497;28;20545;-76
2022/05/07 08:03:00;;;;;;;14.13;6.70;;;;;;;21.98;43.83;102789.34;5073755;28;20032;-76
2022/05/07 08:05:32;;;;;;;14.50;7.05;;;;;;;22.07;43.71;102803.19;5064735;28;20413;-83
2022/05/07 08:13:33;;;;;;;16.88;7.68;;;;;;;22.13;43.92;102802.66;5073948;28;20032;-74
2022/05/07 08:15:58;;;;;;;13.40;6.57;;;;;;;22.14;43.53;102804.31;5071042;28;20367;-75
2022/05/07 08:18:24;;;;;;;17.98;7.57;;;;;;;22.08;43.41;102805.66;5079204;28;20079;-74
2022/05/07 08:20:49;;;;;;;14.40;8.18;;;;;;;21.99;43.74;102815.19;5054876;28;20029;-75
2022/05/07 08:23:15;;;;;;;9.85;6.22;;;;;;;21.92;43.99;102817.75;5054896;28;20025;-75
2022/05/07 08:25:40;;;;;;;9.77;6.47;;;;;;;22.06;43.45;102812.69;5065520;28;20033;-93
2022/05/07 08:28:06;;;;;;;10.60;6.32;;;;;;;22.19;43.38;102806.03;5071030;28;20056;-75
2022/05/07 08:30:32;;;;;;;12.07;6.72;;;;;;;22.15;43.60;102805.94;5074451;28;20035;-75
2022/05/07 08:32:57;;;;;;;9.23;6.38;;;;;;;22.22;43.25;102805.38;5074811;28;20367;-75
2022/05/07 08:35:23;;;;;;;10.85;6.50;;;;;;;22.22;43.50;102799.81;5074036;28;20023;-78
2022/05/07 08:37:50;;;;;;;12.48;6.85;;;;;;;22.26;43.54;102797.94;5074575;28;20028;-74
2022/05/07 08:40:18;;;;;;;27.10;9.52;;;;;;;22.22;43.69;102796.19;5074431;28;20020;-77
2022/05/07 08:42:44;;;;;;;11.73;6.57;;;;;;;22.31;43.52;102791.34;5074293;28;20074;-75
2022/05/07 08:45:14;;;;;;;14.52;7.07;;;;;;;22.41;43.36;102785.34;5072872;28;20029;-75
2022/05/07 08:47:43;;;;;;;9.30;6.22;;;;;;;22.59;43.11;102775.59;5054291;28;20108;-76
2022/05/07 08:50:11;;;;;;;12.13;6.85;;;;;;;22.67;42.94;102774.72;5053991;28;20064;-79
2022/05/07 08:52:39;;;;;;;12.35;7.22;;;;;;;22.73;42.88;102775.28;5054435;28;20025;-83
2022/05/07 08:55:06;;;;;;;10.25;7.30;;;;;;;22.71;42.51;102775.63;5064991;28;20112;-84
2022/05/07 08:57:31;;;;;;;11.82;7.03;;;;;;;22.84;42.69;102786.81;5057343;28;20024;-79
2022/05/07 08:59:58;;;;;;;13.38;8.07;;;;;;;22.88;42.53;102773.81;5068865;28;20115;-75
2022/05/07 09:02:23;;;;;;;11.10;7.55;;;;;;;23.01;42.54;102780.22;5070893;28;20032;-75
2022/05/07 09:04:58;;;;;;;12.60;8.27;;;;;;;23.02;42.59;102781.81;5072911;28;20020;-75
2022/05/07 09:07:24;;;;;;;12.35;6.55;;;;;;;23.24;42.25;102784.13;5064177;28;20112;-84
2022/05/07 09:09:51;;;;;;;19.55;7.75;;;;;;;23.32;41.72;102790.75;5070063;28;20032;-75
2022/05/07 09:12:28;;;;;;;20.45;8.18;;;;;;;23.25;42.21;102781.00;5072176;28;20060;-75
2022/05/07 09:15:01;;;;;;;16.02;7.72;;;;;;;23.30;41.77;102781.94;5071898;28;20043;-75
2022/05/07 09:17:28;;;;;;;12.18;6.68;;;;;;;23.34;41.91;102783.66;5072236;28;20382;-75
2022/05/07 09:19:53;;;;;;;12.98;8.15;;;;;;;23.35;41.68;102784.47;5071425;28;20063;-75
2022/05/07 09:22:19;;;;;;;20.67;15.85;;;;;;;23.23;41.85;102794.47;5069708;28;20028;-75
2022/05/07 09:24:55;;;;;;;17.15;9.70;;;;;;;23.20;41.79;102786.81;5070085;28;20028;-84
2022/05/07 09:27:22;;;;;;;12.55;7.70;;;;;;;23.25;41.73;102788.53;5071679;28;20041;-82
2022/05/07 09:30:08;;;;;;;10.07;7.18;;;;;;;23.40;41.57;102795.38;5069048;28;20029;-77
2022/05/07 09:32:38;;;;;;;26.50;20.10;;;;;;;23.46;41.28;102799.56;5070579;28;20037;-78
2022/05/07 09:38:01;;;;;;;11.43;7.65;;;;;;;23.58;41.18;102799.53;5068358;28;20122;-76
2022/05/07 09:40:28;;;;;;;15.38;8.52;;;;;;;23.55;41.00;102811.41;5069730;28;20025;-84
2022/05/07 09:42:57;;;;;;;17.98;10.25;;;;;;;23.47;41.29;102801.19;5071960;28;20078;-84
2022/05/07 09:45:26;;;;;;;87.35;71.82;;;;;;;23.43;41.43;102794.69;5071487;28;20040;-75
2022/05/07 09:47:57;;;;;;;19.80;10.25;;;;;;;23.49;41.31;102796.06;5070467;28;20054;-74
2022/05/07 09:50:25;;;;;;;18.52;7.78;;;;;;;23.67;41.19;102797.47;5070830;28;20029;-74
2022/05/07 09:58:20;;;;;;;24.02;8.65;;;;;;;23.71;40.80;102809.53;5067676;28;20048;-74
2022/05/07 10:00:59;;;;;;;24.42;15.18;;;;;;;23.72;40.72;102799.97;5067881;28;20629;-74
2022/05/07 10:03:34;;;;;;;17.10;11.45;;;;;;;23.63;40.73;102802.09;5070265;28;20017;-82
2022/05/07 10:06:12;;;;;;;20.33;12.23;;;;;;;23.76;40.60;102803.69;5068774;28;20503;-73
2022/05/07 10:09:08;;;;;;;15.25;8.18;;;;;;;23.88;40.48;102796.44;5063832;28;20028;-74
2022/05/07 10:11:34;;;;;;;20.35;10.20;;;;;;;23.97;40.38;102795.13;5062603;28;20035;-73
2022/05/07 10:14:00;;;;;;;16.20;9.57;;;;;;;24.09;40.51;102797.84;5063812;28;20025;-79
2022/05/07 10:16:32;;;;;;;15.10;9.65;;;;;;;23.99;40.56;102798.38;5070831;28;20458;-74
2022/05/07 10:19:10;;;;;;;15.45;8.25;;;;;;;24.03;40.12;102793.72;5065095;28;20059;-74
2022/05/07 10:21:35;;;;;;;13.13;8.48;;;;;;;24.07;40.31;102793.81;5068835;28;20032;-76
2022/05/07 10:24:02;;;;;;;11.48;7.47;;;;;;;24.04;39.86;102800.94;5069392;28;20406;-74
2022/05/07 10:26:39;;;;;;;14.02;9.00;;;;;;;24.01;39.96;102796.03;5068354;28;20111;-74
2022/05/07 10:29:06;;;;;;;19.55;7.93;;;;;;;24.03;39.91;102804.06;5070365;28;20059;-85
2022/05/07 10:31:44;;;;;;;11.05;7.28;;;;;;;23.84;40.35;102812.28;5072322;28;20060;-75
2022/05/07 10:34:10;;;;;;;15.45;9.57;;;;;;;23.95;40.01;102802.22;5072153;28;20093;-85
2022/05/07 10:36:36;;;;;;;12.27;7.78;;;;;;;24.04;39.92;102805.69;5068795;28;20028;-74
2022/05/07 10:39:09;;;;;;;10.63;7.78;;;;;;;24.26;39.55;102790.34;5053566;28;20082;-74
2022/05/07 10:41:47;;;;;;;19.20;9.75;;;;;;;24.28;39.82;102797.19;5064200;28;20379;-75
2022/05/07 10:44:29;;;;;;;9.77;7.97;;;;;;;24.39;39.58;102793.91;5071172;28;20119;-78
2022/05/07 10:46:54;;;;;;;13.80;7.90;;;;;;;24.61;39.68;102804.47;5063368;28;20050;-75
2022/05/07 10:49:20;;;;;;;16.77;8.13;;;;;;;24.79;39.41;102790.97;5051139;28;20116;-75
2022/05/07 10:51:52;;;;;;;13.13;10.25;;;;;;;24.95;38.96;102793.75;5049772;28;20024;-75
2022/05/07 10:54:23;;;;;;;15.48;11.60;;;;;;;25.00;38.87;102790.66;5052962;28;20119;-75
2022/05/07 10:56:50;;;;;;;11.68;8.38;;;;;;;25.09;39.10;102796.91;5070314;28;20540;-84
2022/05/07 10:59:16;;;;;;;13.75;8.80;;;;;;;25.05;39.08;102798.81;5071599;28;20533;-80
2022/05/07 11:01:42;;;;;;;13.35;8.15;;;;;;;25.00;39.13;102797.06;5071796;28;20055;-76
2022/05/07 11:04:12;;;;;;;13.40;7.57;;;;;;;25.21;38.57;102794.00;5071159;28;20032;-76
2022/05/07 11:06:44;;;;;;;12.75;6.40;;;;;;;25.42;37.75;102797.28;5069232;28;20024;-75
2022/05/07 11:09:19;;;;;;;9.63;7.00;;;;;;;25.60;37.51;102799.66;5069596;28;20013;-75
2022/05/07 11:11:46;;;;;;;13.57;6.88;;;;;;;25.74;37.48;102794.41;5069652;28;20109;-75
2022/05/07 11:14:23;;;;;;;17.77;7.15;;;;;;;25.74;36.55;102794.41;5073651;28;20024;-75
2022/05/07 11:16:49;;;;;;;12.40;6.60;;;;;;;25.78;37.01;102797.28;5073452;28;20025;-75
2022/05/07 11:19:34;;;;;;;18.80;7.13;;;;;;;25.70;36.89;102794.31;5073139;28;20040;-75
2022/05/07 11:22:01;;;;;;;10.50;7.82;;;;;;;25.71;37.49;102793.16;5073372;28;20060;-86
2022/05/07 11:24:28;;;;;;;17.65;8.20;;;;;;;25.80;37.57;102787.34;5073439;28;20105;-77
2022/05/07 11:26:56;;;;;;;10.48;7.25;;;;;;;26.06;37.25;102791.44;5059786;28;20040;-75
2022/05/07 11:29:23;;;;;;;12.88;7.53;;;;;;;25.99;36.89;102800.50;5060208;28;20029;-75
2022/05/07 11:31:59;;;;;;;17.75;10.93;;;;;;;26.04;37.12;102785.41;5059238;28;20842;-75
2022/05/07 11:34:31;;;;;;;14.77;9.05;;;;;;;26.24;37.18;102782.19;5073890;28;20024;-75
2022/05/07 11:37:08;;;;;;;24.20;12.15;;;;;;;26.38;37.24;102780.84;5075193;28;20021;-75
2022/05/07 11:39:34;;;;;;;14.18;7.88;;;;;;;26.44;37.20;102784.97;5073678;28;20024;-74
2022/05/07 11:42:00;;;;;;;15.20;9.05;;;;;;;26.25;37.47;102794.22;5074023;28;20027;-83